sensor_id;sensor_type;location;lat;lon;timestamp;pressure;altitude;pressure_sealevel;temperature;humidity
80911;BME280;70359;51.420;7.032;2023-07-29T00:01:20;993.1906;;;20.81;70.01172
80911;BME280;70359;51.420;7.032;2023-07-29T00:03:45;993.1113;;;20.77;70.2832
80911;BME280;70359;51.420;7.032;2023-07-29T00:06:10;993.1174;;;20.77;70.39844
80911;BME280;70359;51.420;7.032;2023-07-29T00:08:35;993.0765;;;20.75;70.58008
80911;BME280;70359;51.420;7.032;2023-07-29T00:11:00;993.0608;;;20.77;70.53906
80911;BME280;70359;51.420;7.032;2023-07-29T00:13:25;993.089;;;20.8;70.53125
80911;BME280;70359;51.420;7.032;2023-07-29T00:15:53;993.0817;;;20.8;70.25293
80911;BME280;70359;51.420;7.032;2023-07-29T00:18:15;993.0625;;;20.75;70.67285
80911;BME280;70359;51.420;7.032;2023-07-29T00:20:40;993.0969;;;20.76;70.5459
80911;BME280;70359;51.420;7.032;2023-07-29T00:23:05;993.0796;;;20.73;70.80664
80911;BME280;70359;51.420;7.032;2023-07-29T00:25:30;993.0457;;;20.75;70.69434
80911;BME280;70359;51.420;7.032;2023-07-29T00:27:56;992.9939;;;20.76;70.53613
80911;BME280;70359;51.420;7.032;2023-07-29T00:30:20;992.9989;;;20.74;70.64844
80911;BME280;70359;51.420;7.032;2023-07-29T00:32:45;992.9305;;;20.76;70.58008
80911;BME280;70359;51.420;7.032;2023-07-29T00:35:11;992.897;;;20.74;70.78516
80911;BME280;70359;51.420;7.032;2023-07-29T00:37:35;992.8625;;;20.75;70.78711
80911;BME280;70359;51.420;7.032;2023-07-29T00:40:01;992.8522;;;20.73;70.92285
80911;BME280;70359;51.420;7.032;2023-07-29T00:42:26;992.8547;;;20.77;70.7334
80911;BME280;70359;51.420;7.032;2023-07-29T00:44:51;992.9384;;;20.74;70.87891
80911;BME280;70359;51.420;7.032;2023-07-29T00:47:16;992.8717;;;20.78;70.74609
80911;BME280;70359;51.420;7.032;2023-07-29T00:49:40;992.8862;;;20.76;70.82422
80911;BME280;70359;51.420;7.032;2023-07-29T00:52:06;992.8921;;;20.79;70.62109
80911;BME280;70359;51.420;7.032;2023-07-29T00:54:31;992.8792;;;20.77;70.76953
80911;BME280;70359;51.420;7.032;2023-07-29T00:56:56;992.8361;;;20.79;70.70117
80911;BME280;70359;51.420;7.032;2023-07-29T00:59:21;992.7431;;;20.77;70.76953
80911;BME280;70359;51.420;7.032;2023-07-29T01:01:46;992.7117;;;20.79;70.57422
80911;BME280;70359;51.420;7.032;2023-07-29T01:04:11;992.7031;;;20.78;70.59668
80911;BME280;70359;51.420;7.032;2023-07-29T01:06:38;992.6478;;;20.79;70.28613
80911;BME280;70359;51.420;7.032;2023-07-29T01:09:02;992.6519;;;20.77;70.50293
80911;BME280;70359;51.420;7.032;2023-07-29T01:11:29;992.6163;;;20.78;70.2041
80911;BME280;70359;51.420;7.032;2023-07-29T01:13:53;992.644;;;20.77;70.29492
80911;BME280;70359;51.420;7.032;2023-07-29T01:16:17;992.6591;;;20.79;70.05469
80911;BME280;70359;51.420;7.032;2023-07-29T01:18:41;992.6522;;;20.76;70.08398
80911;BME280;70359;51.420;7.032;2023-07-29T01:21:07;992.6639;;;20.76;69.86523
80911;BME280;70359;51.420;7.032;2023-07-29T01:23:33;992.6592;;;20.73;70.08105
80911;BME280;70359;51.420;7.032;2023-07-29T01:25:56;992.6964;;;20.74;70.10547
80911;BME280;70359;51.420;7.032;2023-07-29T01:28:21;992.6663;;;20.73;70.28809
80911;BME280;70359;51.420;7.032;2023-07-29T01:30:46;992.6537;;;20.72;70.36719
80911;BME280;70359;51.420;7.032;2023-07-29T01:33:12;992.65;;;20.71;70.52734
80911;BME280;70359;51.420;7.032;2023-07-29T01:35:36;992.6537;;;20.72;70.59766
80911;BME280;70359;51.420;7.032;2023-07-29T01:38:01;992.5531;;;20.73;70.47266
80911;BME280;70359;51.420;7.032;2023-07-29T01:40:26;992.5338;;;20.72;70.63281
80911;BME280;70359;51.420;7.032;2023-07-29T01:42:51;992.5161;;;20.73;70.58789
80911;BME280;70359;51.420;7.032;2023-07-29T01:45:16;992.4626;;;20.7;70.61816
80911;BME280;70359;51.420;7.032;2023-07-29T01:47:41;992.475;;;20.72;70.5752
80911;BME280;70359;51.420;7.032;2023-07-29T01:50:06;992.5145;;;20.71;70.7002
80911;BME280;70359;51.420;7.032;2023-07-29T01:52:31;992.5562;;;20.73;70.62207
80911;BME280;70359;51.420;7.032;2023-07-29T01:54:56;992.4769;;;20.71;70.81543
80911;BME280;70359;51.420;7.032;2023-07-29T01:57:21;992.4584;;;20.74;70.68164
80911;BME280;70359;51.420;7.032;2023-07-29T01:59:46;992.4428;;;20.71;70.91992
80911;BME280;70359;51.420;7.032;2023-07-29T02:02:11;992.4761;;;20.75;70.70605
80911;BME280;70359;51.420;7.032;2023-07-29T02:04:36;992.5106;;;20.71;70.85059
80911;BME280;70359;51.420;7.032;2023-07-29T02:07:01;992.501;;;20.74;70.71582
80911;BME280;70359;51.420;7.032;2023-07-29T02:09:26;992.4556;;;20.71;70.85059
80911;BME280;70359;51.420;7.032;2023-07-29T02:11:51;992.3998;;;20.73;70.77246
80911;BME280;70359;51.420;7.032;2023-07-29T02:14:16;992.3571;;;20.71;70.93164
80911;BME280;70359;51.420;7.032;2023-07-29T02:16:41;992.3492;;;20.74;70.73926
80911;BME280;70359;51.420;7.032;2023-07-29T02:19:06;992.2414;;;20.7;70.88379
80911;BME280;70359;51.420;7.032;2023-07-29T02:21:31;992.1958;;;20.73;70.70313
80911;BME280;70359;51.420;7.032;2023-07-29T02:23:56;992.1933;;;20.72;70.69043
80911;BME280;70359;51.420;7.032;2023-07-29T02:26:21;992.1725;;;20.72;70.67871
80911;BME280;70359;51.420;7.032;2023-07-29T02:28:46;992.1487;;;20.71;70.71191
80911;BME280;70359;51.420;7.032;2023-07-29T02:31:14;992.1086;;;20.72;70.71387
80911;BME280;70359;51.420;7.032;2023-07-29T02:33:36;992.0859;;;20.71;70.66602
80911;BME280;70359;51.420;7.032;2023-07-29T02:36:01;992.1409;;;20.71;70.76953
80911;BME280;70359;51.420;7.032;2023-07-29T02:38:26;992.2025;;;20.73;70.69141
80911;BME280;70359;51.420;7.032;2023-07-29T02:40:51;992.257;;;20.75;70.78809
80911;BME280;70359;51.420;7.032;2023-07-29T02:43:16;992.2726;;;20.75;70.66113
80911;BME280;70359;51.420;7.032;2023-07-29T02:45:41;992.2819;;;20.76;70.77832
80911;BME280;70359;51.420;7.032;2023-07-29T02:48:06;992.2042;;;20.79;70.49414
80911;BME280;70359;51.420;7.032;2023-07-29T02:50:31;992.1641;;;20.79;70.61914
80911;BME280;70359;51.420;7.032;2023-07-29T02:52:56;992.1346;;;20.82;70.39453
80911;BME280;70359;51.420;7.032;2023-07-29T02:55:21;992.0969;;;20.8;70.4375
80911;BME280;70359;51.420;7.032;2023-07-29T02:57:46;992.1164;;;20.82;70.31445
80911;BME280;70359;51.420;7.032;2023-07-29T03:00:12;992.182;;;20.8;70.33496
80911;BME280;70359;51.420;7.032;2023-07-29T03:02:36;992.18;;;20.83;70.23535
80911;BME280;70359;51.420;7.032;2023-07-29T03:05:01;992.2256;;;20.75;70.34961
80911;BME280;70359;51.420;7.032;2023-07-29T03:07:26;992.2949;;;20.81;70.30078
80911;BME280;70359;51.420;7.032;2023-07-29T03:09:51;992.3809;;;20.78;70.45801
80911;BME280;70359;51.420;7.032;2023-07-29T03:12:16;992.3806;;;20.81;70.31152
80911;BME280;70359;51.420;7.032;2023-07-29T03:14:41;992.3488;;;20.77;70.53711
80911;BME280;70359;51.420;7.032;2023-07-29T03:17:06;992.3354;;;20.82;70.37109
80911;BME280;70359;51.420;7.032;2023-07-29T03:19:31;992.307;;;20.78;70.57324
80911;BME280;70359;51.420;7.032;2023-07-29T03:21:56;992.3117;;;20.79;70.45898
80911;BME280;70359;51.420;7.032;2023-07-29T03:24:21;992.28;;;20.75;70.78809
80911;BME280;70359;51.420;7.032;2023-07-29T03:26:46;992.2189;;;20.75;70.68457
80911;BME280;70359;51.420;7.032;2023-07-29T03:29:11;992.2374;;;20.75;70.78809
80911;BME280;70359;51.420;7.032;2023-07-29T03:31:36;992.2134;;;20.78;70.60742
80911;BME280;70359;51.420;7.032;2023-07-29T03:34:01;992.2508;;;20.77;70.46777
80911;BME280;70359;51.420;7.032;2023-07-29T03:36:26;992.27;;;20.8;70.54102
80911;BME280;70359;51.420;7.032;2023-07-29T03:38:51;992.2408;;;20.8;70.34668
80911;BME280;70359;51.420;7.032;2023-07-29T03:41:16;992.2241;;;20.78;70.41113
80911;BME280;70359;51.420;7.032;2023-07-29T03:43:41;992.221;;;20.79;70.33203
80911;BME280;70359;51.420;7.032;2023-07-29T03:46:06;992.1891;;;20.79;70.44727
80911;BME280;70359;51.420;7.032;2023-07-29T03:48:31;992.212;;;20.79;70.28613
80911;BME280;70359;51.420;7.032;2023-07-29T03:50:56;992.1958;;;20.79;70.52832
80911;BME280;70359;51.420;7.032;2023-07-29T03:53:21;992.1342;;;20.79;70.25098
80911;BME280;70359;51.420;7.032;2023-07-29T03:55:46;992.097;;;20.78;70.5498
80911;BME280;70359;51.420;7.032;2023-07-29T03:58:11;992.05;;;20.76;70.30469
80911;BME280;70359;51.420;7.032;2023-07-29T04:00:36;991.9871;;;20.75;70.48633
80911;BME280;70359;51.420;7.032;2023-07-29T04:03:01;992.1055;;;20.76;70.47754
80911;BME280;70359;51.420;7.032;2023-07-29T04:05:26;992.0361;;;20.74;70.55566
80911;BME280;70359;51.420;7.032;2023-07-29T04:07:51;991.9495;;;20.75;70.53418
80911;BME280;70359;51.420;7.032;2023-07-29T04:10:16;991.8535;;;20.74;70.63574
80911;BME280;70359;51.420;7.032;2023-07-29T04:12:43;991.9291;;;20.74;70.45215
80911;BME280;70359;51.420;7.032;2023-07-29T04:15:06;992.0471;;;20.72;70.64453
80911;BME280;70359;51.420;7.032;2023-07-29T04:17:31;992.1425;;;20.74;70.54492
80911;BME280;70359;51.420;7.032;2023-07-29T04:19:56;992.1613;;;20.72;70.74805
80911;BME280;70359;51.420;7.032;2023-07-29T04:22:21;992.0568;;;20.74;70.47363
80911;BME280;70359;51.420;7.032;2023-07-29T04:24:46;992.0353;;;20.7;70.67578
80911;BME280;70359;51.420;7.032;2023-07-29T04:27:11;992.0322;;;20.71;70.52734
80911;BME280;70359;51.420;7.032;2023-07-29T04:29:36;992.0645;;;20.68;70.77734
80911;BME280;70359;51.420;7.032;2023-07-29T04:32:01;992.145;;;20.73;70.6123
80911;BME280;70359;51.420;7.032;2023-07-29T04:34:26;992.2686;;;20.71;70.75781
80911;BME280;70359;51.420;7.032;2023-07-29T04:36:51;992.3251;;;20.73;70.50684
80911;BME280;70359;51.420;7.032;2023-07-29T04:39:16;992.3549;;;20.71;70.56152
80911;BME280;70359;51.420;7.032;2023-07-29T04:41:41;992.2966;;;20.73;70.11426
80911;BME280;70359;51.420;7.032;2023-07-29T04:44:06;992.2583;;;20.68;70.4541
80911;BME280;70359;51.420;7.032;2023-07-29T04:46:31;992.3596;;;20.72;70.27441
80911;BME280;70359;51.420;7.032;2023-07-29T04:48:56;992.4304;;;20.74;70.20801
80911;BME280;70359;51.420;7.032;2023-07-29T04:51:21;992.5662;;;20.75;70.03809
80911;BME280;70359;51.420;7.032;2023-07-29T04:53:46;992.5793;;;20.76;69.8877
80911;BME280;70359;51.420;7.032;2023-07-29T04:56:11;992.6186;;;20.74;69.9541
80911;BME280;70359;51.420;7.032;2023-07-29T04:58:37;992.6191;;;20.78;69.70703
80911;BME280;70359;51.420;7.032;2023-07-29T05:01:01;992.6216;;;20.77;69.78711
80911;BME280;70359;51.420;7.032;2023-07-29T05:03:26;992.6436;;;20.8;69.2959
80911;BME280;70359;51.420;7.032;2023-07-29T05:05:51;992.6267;;;20.75;69.34473
80911;BME280;70359;51.420;7.032;2023-07-29T05:08:16;992.5458;;;20.76;69.27539
80911;BME280;70359;51.420;7.032;2023-07-29T05:10:41;992.4736;;;20.71;69.38379
80911;BME280;70359;51.420;7.032;2023-07-29T05:13:06;992.413;;;20.74;69.29785
80911;BME280;70359;51.420;7.032;2023-07-29T05:15:31;992.3428;;;20.72;69.44336
80911;BME280;70359;51.420;7.032;2023-07-29T05:17:56;992.3033;;;20.71;69.40723
80911;BME280;70359;51.420;7.032;2023-07-29T05:20:21;992.1588;;;20.64;69.81152
80911;BME280;70359;51.420;7.032;2023-07-29T05:22:46;992.103;;;20.65;69.69922
80911;BME280;70359;51.420;7.032;2023-07-29T05:25:11;992.0578;;;20.62;69.62598
80911;BME280;70359;51.420;7.032;2023-07-29T05:27:36;992.0695;;;20.64;69.7666
80911;BME280;70359;51.420;7.032;2023-07-29T05:30:01;992.1545;;;20.6;69.86426
80911;BME280;70359;51.420;7.032;2023-07-29T05:32:26;992.1955;;;20.64;69.53613
80911;BME280;70359;51.420;7.032;2023-07-29T05:34:51;992.2009;;;20.6;69.75977
80911;BME280;70359;51.420;7.032;2023-07-29T05:37:16;992.2802;;;20.6;69.64453
80911;BME280;70359;51.420;7.032;2023-07-29T05:39:41;992.4031;;;20.59;70.03613
80911;BME280;70359;51.420;7.032;2023-07-29T05:42:06;992.5609;;;20.63;69.85645
80911;BME280;70359;51.420;7.032;2023-07-29T05:44:31;992.6156;;;20.61;70.10742
80911;BME280;70359;51.420;7.032;2023-07-29T05:46:56;992.6586;;;20.65;69.81445
80911;BME280;70359;51.420;7.032;2023-07-29T05:49:21;992.7508;;;20.61;69.94629
80911;BME280;70359;51.420;7.032;2023-07-29T05:51:46;992.8187;;;20.66;69.50488
80911;BME280;70359;51.420;7.032;2023-07-29T05:54:11;992.8975;;;20.66;69.20313
80911;BME280;70359;51.420;7.032;2023-07-29T05:56:36;992.8887;;;20.69;68.85059
80911;BME280;70359;51.420;7.032;2023-07-29T05:59:01;992.879;;;20.66;68.76367
80911;BME280;70359;51.420;7.032;2023-07-29T06:01:26;992.8862;;;20.66;68.81055
80911;BME280;70359;51.420;7.032;2023-07-29T06:03:51;992.9523;;;20.66;68.58008
80911;BME280;70359;51.420;7.032;2023-07-29T06:06:16;992.9356;;;20.61;68.69922
80911;BME280;70359;51.420;7.032;2023-07-29T06:08:43;992.9074;;;20.59;68.56836
80911;BME280;70359;51.420;7.032;2023-07-29T06:11:06;993.0167;;;20.52;68.80273
80911;BME280;70359;51.420;7.032;2023-07-29T06:13:31;993.0363;;;20.54;68.73633
80911;BME280;70359;51.420;7.032;2023-07-29T06:15:56;993.0862;;;20.51;68.80957
80911;BME280;70359;51.420;7.032;2023-07-29T06:18:21;993.1013;;;20.56;68.66797
80911;BME280;70359;51.420;7.032;2023-07-29T06:20:46;993.139;;;20.54;68.58496
80911;BME280;70359;51.420;7.032;2023-07-29T06:23:11;993.169;;;20.56;67.97656
80911;BME280;70359;51.420;7.032;2023-07-29T06:25:36;993.1945;;;20.54;67.87988
80911;BME280;70359;51.420;7.032;2023-07-29T06:28:01;993.2809;;;20.56;67.375
80911;BME280;70359;51.420;7.032;2023-07-29T06:30:26;993.2911;;;20.51;67.28613
80911;BME280;70359;51.420;7.032;2023-07-29T06:32:51;993.3015;;;20.51;66.85938
80911;BME280;70359;51.420;7.032;2023-07-29T06:35:16;993.3674;;;20.44;66.95313
80911;BME280;70359;51.420;7.032;2023-07-29T06:37:41;993.3582;;;20.43;66.90527
80911;BME280;70359;51.420;7.032;2023-07-29T06:40:07;993.3649;;;20.39;67.19922
80911;BME280;70359;51.420;7.032;2023-07-29T06:42:31;993.3323;;;20.43;67.29688
80911;BME280;70359;51.420;7.032;2023-07-29T06:44:56;993.2744;;;20.36;67.42676
80911;BME280;70359;51.420;7.032;2023-07-29T06:47:21;993.3665;;;20.43;67.77148
80911;BME280;70359;51.420;7.032;2023-07-29T06:49:46;993.3953;;;20.44;67.33398
80911;BME280;70359;51.420;7.032;2023-07-29T06:52:11;993.3745;;;20.54;66.86523
80911;BME280;70359;51.420;7.032;2023-07-29T06:54:36;993.3738;;;20.51;66.70996
80911;BME280;70359;51.420;7.032;2023-07-29T06:57:01;993.3989;;;20.55;66.62402
80911;BME280;70359;51.420;7.032;2023-07-29T06:59:26;993.3667;;;20.46;67.07227
80911;BME280;70359;51.420;7.032;2023-07-29T07:01:51;993.3406;;;20.5;66.76563
80911;BME280;70359;51.420;7.032;2023-07-29T07:04:16;993.3472;;;20.46;66.63184
80911;BME280;70359;51.420;7.032;2023-07-29T07:06:41;993.3197;;;20.48;66.7168
80911;BME280;70359;51.420;7.032;2023-07-29T07:09:06;993.3119;;;20.5;65.7959
80911;BME280;70359;51.420;7.032;2023-07-29T07:11:31;993.2869;;;20.58;64.65039
80911;BME280;70359;51.420;7.032;2023-07-29T07:13:56;993.2605;;;20.59;65.04688
80911;BME280;70359;51.420;7.032;2023-07-29T07:16:21;993.2955;;;20.59;65.20605
80911;BME280;70359;51.420;7.032;2023-07-29T07:18:46;993.323;;;20.6;65.20898
80911;BME280;70359;51.420;7.032;2023-07-29T07:21:11;993.3549;;;20.61;65.62695
80911;BME280;70359;51.420;7.032;2023-07-29T07:23:38;993.363;;;20.61;66.1709
80911;BME280;70359;51.420;7.032;2023-07-29T07:26:01;993.3268;;;20.65;66.56738
80911;BME280;70359;51.420;7.032;2023-07-29T07:28:26;993.3521;;;20.75;65.87891
80911;BME280;70359;51.420;7.032;2023-07-29T07:30:51;993.3434;;;20.74;66.00488
80911;BME280;70359;51.420;7.032;2023-07-29T07:33:16;993.3755;;;20.85;64.7832
80911;BME280;70359;51.420;7.032;2023-07-29T07:35:41;993.3914;;;20.86;65.09668
80911;BME280;70359;51.420;7.032;2023-07-29T07:38:06;993.3572;;;20.96;64.99512
80911;BME280;70359;51.420;7.032;2023-07-29T07:40:31;993.3342;;;20.98;65.32324
80911;BME280;70359;51.420;7.032;2023-07-29T07:42:56;993.3;;;21.07;64.51367
80911;BME280;70359;51.420;7.032;2023-07-29T07:45:22;993.2864;;;21.11;64.72852
80911;BME280;70359;51.420;7.032;2023-07-29T07:47:46;993.2997;;;21.23;64.28223
80911;BME280;70359;51.420;7.032;2023-07-29T07:50:12;993.2734;;;21.27;63.8252
80911;BME280;70359;51.420;7.032;2023-07-29T07:52:37;993.2971;;;21.39;63.95801
80911;BME280;70359;51.420;7.032;2023-07-29T07:55:02;993.2966;;;21.36;63.65234
80911;BME280;70359;51.420;7.032;2023-07-29T07:57:27;993.3397;;;21.45;63.27051
80911;BME280;70359;51.420;7.032;2023-07-29T07:59:52;993.3684;;;21.43;62.45605
80911;BME280;70359;51.420;7.032;2023-07-29T08:02:17;993.3964;;;21.5;62.21094
80911;BME280;70359;51.420;7.032;2023-07-29T08:04:42;993.4014;;;21.44;61.82031
80911;BME280;70359;51.420;7.032;2023-07-29T08:07:07;993.3933;;;21.51;61.27344
80911;BME280;70359;51.420;7.032;2023-07-29T08:09:32;993.4252;;;21.47;61.70801
80911;BME280;70359;51.420;7.032;2023-07-29T08:11:57;993.3766;;;21.54;61.83398
80911;BME280;70359;51.420;7.032;2023-07-29T08:14:22;993.3806;;;21.57;62.12891
80911;BME280;70359;51.420;7.032;2023-07-29T08:16:47;993.3723;;;21.69;60.56738
80911;BME280;70359;51.420;7.032;2023-07-29T08:19:12;993.4171;;;21.62;60.38477
80911;BME280;70359;51.420;7.032;2023-07-29T08:21:37;993.3736;;;21.63;59.49121
80911;BME280;70359;51.420;7.032;2023-07-29T08:24:02;993.428;;;21.67;59.1377
80911;BME280;70359;51.420;7.032;2023-07-29T08:26:27;993.4556;;;21.64;60.20117
80911;BME280;70359;51.420;7.032;2023-07-29T08:28:52;993.3797;;;21.68;60.03223
80911;BME280;70359;51.420;7.032;2023-07-29T08:31:17;993.3962;;;21.63;60.87207
80911;BME280;70359;51.420;7.032;2023-07-29T08:33:42;993.4141;;;21.67;60.7373
80911;BME280;70359;51.420;7.032;2023-07-29T08:36:07;993.3948;;;21.68;59.62598
80911;BME280;70359;51.420;7.032;2023-07-29T08:38:32;993.4453;;;21.79;59.38477
80911;BME280;70359;51.420;7.032;2023-07-29T08:40:58;993.4203;;;21.8;59.8623
80911;BME280;70359;51.420;7.032;2023-07-29T08:43:22;993.4041;;;21.88;59.9541
80911;BME280;70359;51.420;7.032;2023-07-29T08:45:47;993.3798;;;21.85;60.83105
80911;BME280;70359;51.420;7.032;2023-07-29T08:48:12;993.3499;;;21.94;59.6709
80911;BME280;70359;51.420;7.032;2023-07-29T08:50:37;993.3134;;;21.92;59.47266
80911;BME280;70359;51.420;7.032;2023-07-29T08:53:02;993.3082;;;21.99;59.16699
80911;BME280;70359;51.420;7.032;2023-07-29T08:55:27;993.3122;;;22.01;56.40527
80911;BME280;70359;51.420;7.032;2023-07-29T08:57:52;993.3036;;;21.99;56.77441
80911;BME280;70359;51.420;7.032;2023-07-29T09:00:17;993.2522;;;21.98;58.15527
80911;BME280;70359;51.420;7.032;2023-07-29T09:02:42;993.2256;;;22.03;57.52344
80911;BME280;70359;51.420;7.032;2023-07-29T09:05:07;993.196;;;22.06;58.36328
80911;BME280;70359;51.420;7.032;2023-07-29T09:07:32;993.1708;;;22.06;58.49121
80911;BME280;70359;51.420;7.032;2023-07-29T09:09:57;993.1481;;;22.05;58.87305
80911;BME280;70359;51.420;7.032;2023-07-29T09:12:22;993.2453;;;22.06;58.51465
80911;BME280;70359;51.420;7.032;2023-07-29T09:14:47;993.304;;;22.07;59.53711
80911;BME280;70359;51.420;7.032;2023-07-29T09:17:12;993.4483;;;22.18;58.14551
80911;BME280;70359;51.420;7.032;2023-07-29T09:19:37;993.4241;;;22.15;57.58594
80911;BME280;70359;51.420;7.032;2023-07-29T09:22:02;993.3994;;;22.26;58.22656
80911;BME280;70359;51.420;7.032;2023-07-29T09:24:27;993.3862;;;22.28;57.97266
80911;BME280;70359;51.420;7.032;2023-07-29T09:26:52;993.3566;;;22.37;57.25293
80911;BME280;70359;51.420;7.032;2023-07-29T09:29:20;993.342;;;22.3;57.7207
80911;BME280;70359;51.420;7.032;2023-07-29T09:31:42;993.4116;;;22.34;58.08594
80911;BME280;70359;51.420;7.032;2023-07-29T09:34:07;993.4479;;;22.3;56.69531
80911;BME280;70359;51.420;7.032;2023-07-29T09:36:32;993.4416;;;22.35;56.99316
80911;BME280;70359;51.420;7.032;2023-07-29T09:38:57;993.4311;;;22.36;56.27441
80911;BME280;70359;51.420;7.032;2023-07-29T09:41:22;993.5061;;;22.29;56.98535
80911;BME280;70359;51.420;7.032;2023-07-29T09:43:47;993.508;;;22.29;56.99805
80911;BME280;70359;51.420;7.032;2023-07-29T09:46:12;993.5069;;;22.19;57.45117
80911;BME280;70359;51.420;7.032;2023-07-29T09:48:38;993.5255;;;22.17;57.52832
80911;BME280;70359;51.420;7.032;2023-07-29T09:51:02;993.5744;;;22.08;57.47168
80911;BME280;70359;51.420;7.032;2023-07-29T09:53:27;993.598;;;22.09;57.72754
80911;BME280;70359;51.420;7.032;2023-07-29T09:55:52;993.5858;;;22.03;57.91797
80911;BME280;70359;51.420;7.032;2023-07-29T09:58:17;993.6216;;;22.07;57.69043
80911;BME280;70359;51.420;7.032;2023-07-29T10:00:42;993.6145;;;22;58.01758
80911;BME280;70359;51.420;7.032;2023-07-29T10:03:07;993.5898;;;22.01;57.71777
80911;BME280;70359;51.420;7.032;2023-07-29T10:05:32;993.597;;;21.93;58.0332
80911;BME280;70359;51.420;7.032;2023-07-29T10:07:57;993.6354;;;21.94;58.19727
80911;BME280;70359;51.420;7.032;2023-07-29T10:10:22;993.5369;;;21.87;58.53613
80911;BME280;70359;51.420;7.032;2023-07-29T10:12:47;993.5098;;;21.87;59.20996
80911;BME280;70359;51.420;7.032;2023-07-29T10:15:12;993.4964;;;21.82;59.09961
80911;BME280;70359;51.420;7.032;2023-07-29T10:17:37;993.4664;;;21.91;58.94824
80911;BME280;70359;51.420;7.032;2023-07-29T10:20:02;993.5066;;;21.87;59.20996
80911;BME280;70359;51.420;7.032;2023-07-29T10:22:28;993.5101;;;21.96;58.52441
80911;BME280;70359;51.420;7.032;2023-07-29T10:24:52;993.5002;;;21.94;58.80078
80911;BME280;70359;51.420;7.032;2023-07-29T10:27:17;993.432;;;22.02;59.05469
80911;BME280;70359;51.420;7.032;2023-07-29T10:29:42;993.3984;;;22.02;59.48438
80911;BME280;70359;51.420;7.032;2023-07-29T10:32:07;993.3561;;;22.12;59.02051
80911;BME280;70359;51.420;7.032;2023-07-29T10:34:32;993.378;;;22.09;58.78516
80911;BME280;70359;51.420;7.032;2023-07-29T10:36:57;993.421;;;22.22;59.63965
80911;BME280;70359;51.420;7.032;2023-07-29T10:39:22;993.4152;;;22.22;58.82617
80911;BME280;70359;51.420;7.032;2023-07-29T10:42:00;993.4066;;;22.26;58.86523
80911;BME280;70359;51.420;7.032;2023-07-29T10:44:14;993.4539;;;22.25;59.30566
80911;BME280;70359;51.420;7.032;2023-07-29T10:46:37;993.4736;;;22.31;58.61719
80911;BME280;70359;51.420;7.032;2023-07-29T10:49:02;993.4714;;;22.35;58.5752
80911;BME280;70359;51.420;7.032;2023-07-29T10:51:30;993.4595;;;22.32;58.19922
80911;BME280;70359;51.420;7.032;2023-07-29T10:53:52;993.416;;;22.33;56.35059
80911;BME280;70359;51.420;7.032;2023-07-29T10:56:19;993.4878;;;22.29;57.90527
80911;BME280;70359;51.420;7.032;2023-07-29T10:58:43;993.4508;;;22.32;58.11816
80911;BME280;70359;51.420;7.032;2023-07-29T11:01:09;993.4924;;;22.33;57.60742
80911;BME280;70359;51.420;7.032;2023-07-29T11:03:32;993.3962;;;22.33;57.10742
80911;BME280;70359;51.420;7.032;2023-07-29T11:05:57;993.3904;;;22.29;57.56836
80911;BME280;70359;51.420;7.032;2023-07-29T11:08:23;993.3786;;;22.4;58.26758
80911;BME280;70359;51.420;7.032;2023-07-29T11:10:47;993.3148;;;22.36;57.46094
80911;BME280;70359;51.420;7.032;2023-07-29T11:13:12;993.308;;;22.47;56.56738
80911;BME280;70359;51.420;7.032;2023-07-29T11:15:37;993.3163;;;22.38;55.97363
80911;BME280;70359;51.420;7.032;2023-07-29T11:18:02;993.222;;;22.44;57.08594
80911;BME280;70359;51.420;7.032;2023-07-29T11:20:27;993.1687;;;22.41;56.89648
80911;BME280;70359;51.420;7.032;2023-07-29T11:22:52;993.2484;;;22.47;56.53223
80911;BME280;70359;51.420;7.032;2023-07-29T11:25:18;993.2838;;;22.47;57.21875
80911;BME280;70359;51.420;7.032;2023-07-29T11:27:42;993.2856;;;22.55;57.21582
80911;BME280;70359;51.420;7.032;2023-07-29T11:30:08;993.2642;;;22.53;55.99219
80911;BME280;70359;51.420;7.032;2023-07-29T11:32:32;993.2693;;;22.58;55.83496
80911;BME280;70359;51.420;7.032;2023-07-29T11:34:59;993.251;;;22.56;54.76074
80911;BME280;70359;51.420;7.032;2023-07-29T11:37:22;993.3156;;;22.62;55.88672
80911;BME280;70359;51.420;7.032;2023-07-29T11:39:47;993.34;;;22.56;55.50781
80911;BME280;70359;51.420;7.032;2023-07-29T11:42:14;993.3472;;;22.6;55.51172
80911;BME280;70359;51.420;7.032;2023-07-29T11:44:37;993.355;;;22.55;56.33301
80911;BME280;70359;51.420;7.032;2023-07-29T11:47:03;993.3406;;;22.56;56.49707
80911;BME280;70359;51.420;7.032;2023-07-29T11:49:27;993.322;;;22.53;56.72656
80911;BME280;70359;51.420;7.032;2023-07-29T11:51:52;993.2922;;;22.57;56.07813
80911;BME280;70359;51.420;7.032;2023-07-29T11:54:17;993.3175;;;22.53;56.07324
80911;BME280;70359;51.420;7.032;2023-07-29T11:56:42;993.2915;;;22.53;55.94531
80911;BME280;70359;51.420;7.032;2023-07-29T11:59:07;993.2865;;;22.52;56.30469
80911;BME280;70359;51.420;7.032;2023-07-29T12:01:32;993.2442;;;22.54;56.29688
80911;BME280;70359;51.420;7.032;2023-07-29T12:03:57;993.1786;;;22.56;55.87891
80911;BME280;70359;51.420;7.032;2023-07-29T12:06:22;993.0889;;;22.53;55.50293
80911;BME280;70359;51.420;7.032;2023-07-29T12:08:47;993.0503;;;22.6;55.7334
80911;BME280;70359;51.420;7.032;2023-07-29T12:11:12;993.0129;;;22.6;55.9082
80911;BME280;70359;51.420;7.032;2023-07-29T12:13:37;993.0547;;;22.67;55.77734
80911;BME280;70359;51.420;7.032;2023-07-29T12:16:04;993.0817;;;22.61;56.15332
80911;BME280;70359;51.420;7.032;2023-07-29T12:18:33;993.0574;;;22.66;54.84277
80911;BME280;70359;51.420;7.032;2023-07-29T12:20:52;993.0779;;;22.64;56.46094